Latest Coastal Weather Observations for Friendly Beaches

IDT60701

Issued at 9:42 am EST Friday 19 August 2022 (issued every 10 minutes, with the page automatically refreshed every 10 minutes)

About coastal observations | Map of coastal stations | Coastal observations for TAS | Marine services | Other Formats
Station Details ID: 092114 Name: FRIENDLY BEACHES Lat: -42.00 Lon: 148.28 Height: 55.0 m
Data from the previous 72 hours. | See also: Recent months at Friendly Beaches
Date/Time
EST
Wind Sea
Height
m
Swell Vis
km
Cloud Weather Temp
°C
Press
MSL
hPa
Rain since
9am
mm
Dir  Spd
kts
Gust
kts
Height
m
Period
s
Dir
19/09:30am NW 3 5 - - - - - - - 11.0 1007.2 0.0
19/09:00am NW 4 7 - - - - - - - 10.0 1007.1 0.0
19/08:30am W 4 8 - - - - - - - 9.2 1007.2 0.0
19/08:00am WNW 8 13 - - - - - - - 8.1 1006.5 0.0
19/07:30am WNW 6 11 - - - - - - - 7.9 1006.2 0.0
19/07:00am WNW 8 15 - - - - - - - 8.2 1005.7 0.0
19/06:30am WNW 8 15 - - - - - - - 8.4 1005.1 0.0
19/06:00am WNW 7 14 - - - - - - - 8.6 1004.6 0.0
19/05:30am WNW 6 11 - - - - - - - 8.2 1004.6 0.0
19/05:00am W 4 5 - - - - - - - 7.7 1004.6 0.0
19/04:30am W 4 8 - - - - - - - 8.5 1004.2 0.0
19/04:00am WSW 4 6 - - - - - - - 8.6 1003.8 0.0
19/03:30am W 5 9 - - - - - - - 9.1 1003.6 0.0
19/03:00am WNW 3 5 - - - - - - - 8.2 1003.6 0.0
19/02:30am WNW 4 6 - - - - - - - 9.1 1003.4 0.0
19/02:00am NW 4 6 - - - - - - - 9.2 1003.4 0.0
19/01:30am WNW 6 10 - - - - - - - 10.0 1003.0 0.0
19/01:00am WNW 8 15 - - - - - - - 10.2 1002.9 0.0
19/12:30am W 3 6 - - - - - - - 9.7 1003.3 0.0
19/12:00am WSW 3 7 - - - - - - - 10.1 1003.0 0.0
 
Date/Time
EST
Wind Sea
Height
m
Swell Vis
km
Cloud Weather Temp
°C
Press
MSL
hPa
Rain since
9am
mm
Dir  Spd
kts
Gust
kts
Height
m
Period
s
Dir
18/11:30pm NW 3 10 - - - - - - - 10.5 1003.0 0.0
18/11:00pm NNW 1 7 - - - - - - - 10.1 1002.3 0.0
18/10:30pm NNW 2 4 - - - - - - - 10.4 1002.0 0.0
18/10:00pm WNW 5 15 - - - - - - - 11.5 1001.8 0.0
18/09:30pm W 5 9 - - - - - - - 11.9 1001.7 0.0
18/09:00pm WNW 6 12 - - - - - - - 12.2 1001.1 0.0
18/08:30pm WNW 10 19 - - - - - - - 12.6 1000.5 0.0
18/08:00pm WNW 12 21 - - - - - - - 13.0 999.9 0.0
18/07:30pm WNW 9 19 - - - - - - - 13.1 999.8 0.0
18/07:00pm WNW 9 15 - - - - - - - 13.3 999.5 0.0
18/06:30pm NW 11 20 - - - - - - - 13.7 998.9 0.0
18/06:00pm NW 11 18 - - - - - - - 13.9 998.3 0.0
18/05:41pm NW 15 26 - - - - - - - 14.2 997.6 0.0
18/05:30pm NW 13 24 - - - - - - - 14.3 997.5 0.0
18/05:00pm NW 13 24 - - - - - - - 14.7 996.9 0.0
18/04:40pm NW 15 27 - - - - - - - 15.3 996.7 0.0
18/04:30pm NW 13 23 - - - - - - - 15.2 996.6 0.0
18/04:05pm NW 15 30 - - - - - - - 16.0 996.0 0.0
18/04:00pm NW 13 30 - - - - - - - 16.0 995.9 0.0
18/03:30pm NW 11 22 - - - - - - - 16.4 996.4 0.0
18/03:00pm NW 15 28 - - - - - - - 16.8 996.2 0.0
18/02:30pm NNW 16 29 - - - - - - - 17.2 995.7 0.0
18/02:27pm NNW 15 28 - - - - - - - 17.3 995.8 0.0
18/02:00pm NW 11 24 - - - - - - - 17.5 996.0 0.0
18/01:30pm NW 11 21 - - - - - - - 17.7 996.1 0.0
18/01:00pm NW 13 24 - - - - - - - 17.3 996.2 0.0
18/12:35pm NNW 15 30 - - - - - - - 17.1 996.5 0.0
18/12:30pm NNW 14 30 - - - - - - - 17.2 996.6 0.0
18/12:00pm NW 20 36 - - - - - - - 17.3 996.6 0.0
18/11:41am NW 18 38 - - - - - - - 17.3 996.9 0.0
18/11:32am NW 15 26 - - - - - - - 17.5 997.1 0.0
18/11:30am NW 14 26 - - - - - - - 17.4 997.2 0.0
18/11:00am NNW 10 19 - - - - - - - 17.6 998.1 0.0
18/10:30am NNW 8 17 - - - - - - - 17.2 998.4 0.0
18/10:00am NNW 12 21 - - - - - - - 17.1 998.9 0.0
18/09:30am NNW 8 14 - - - - - - - 16.6 999.5 0.0
18/09:00am NNE 5 9 - - - - - - - 13.9 1000.0 1.2
18/08:30am NNE 5 8 - - - - - - - 13.5 1000.3 1.2
18/08:00am N 4 6 - - - - - - - 13.3 1000.8 1.2
18/07:30am N 4 7 - - - - - - - 13.0 1000.6 1.2
18/07:00am NNW 3 7 - - - - - - - 12.7 1001.2 1.2
18/06:30am N 4 6 - - - - - - - 13.2 1000.9 1.2
18/06:00am NW 6 14 - - - - - - - 13.7 1001.2 1.2
18/05:30am NNW 8 12 - - - - - - - 12.8 1001.9 1.2
18/05:00am N 7 10 - - - - - - - 12.6 1002.2 1.2
18/04:30am NNE 7 10 - - - - - - - 12.3 1002.4 1.2
18/04:00am N 8 12 - - - - - - - 12.2 1002.9 1.2
18/03:30am N 8 12 - - - - - - - 12.0 1003.7 1.2
18/03:00am NNE 10 15 - - - - - - - 12.2 1004.4 1.2
18/02:30am N 7 13 - - - - - - - 12.2 1004.6 1.2
18/02:00am NNW 10 15 - - - - - - - 13.1 1005.3 1.2
18/01:30am NW 11 18 - - - - - - - 13.2 1005.0 1.2
18/01:00am NW 18 32 - - - - - - - 13.6 1004.7 1.2
18/12:48am NNW 15 25 - - - - - - - 13.5 1004.5 1.2
18/12:30am NW 15 25 - - - - - - - 13.1 1005.0 1.2
18/12:21am NW 15 27 - - - - - - - 13.1 1005.2 1.2
18/12:00am NNW 8 19 - - - - - - - 12.3 1006.0 1.2
 
Date/Time
EST
Wind Sea
Height
m
Swell Vis
km
Cloud Weather Temp
°C
Press
MSL
hPa
Rain since
9am
mm
Dir  Spd
kts
Gust
kts
Height
m
Period
s
Dir
17/11:30pm N 4 7 - - - - - - - 10.3 1006.7 1.2
17/11:00pm SSE 2 5 - - - - - - - 9.8 1007.1 1.2
17/10:30pm NNW 2 3 - - - - - - - 9.4 1007.5 1.2
17/10:00pm NNW 3 7 - - - - - - - 9.4 1007.6 1.2
17/09:30pm NW 3 5 - - - - - - - 9.5 1007.8 1.2
17/09:00pm N 4 5 - - - - - - Recent precip. 9.4 1008.6 1.2
17/08:30pm N 5 7 - - - - - - - 9.6 1009.3 1.2
17/08:00pm NNW 5 7 - - - - - - - 9.9 1009.5 0.6
17/07:30pm WNW 7 13 - - - - - - - 11.7 1009.8 0.0
17/07:00pm WNW 6 11 - - - - - - - 12.2 1009.7 0.0
17/06:30pm NNW 4 10 - - - - - - - 12.8 1009.8 0.0
17/06:00pm NNW 6 11 - - - - - - - 13.1 1009.7 0.0
17/05:30pm NNE 4 7 - - - - - - - 12.5 1009.2 0.0
17/05:00pm N 5 7 - - - - - - - 12.8 1009.8 0.0
17/04:30pm N 6 10 - - - - - - - 13.1 1009.9 0.0
17/04:00pm NNE 7 11 - - - - - - - 13.1 1010.4 0.0
17/03:30pm NNE 7 13 - - - - - - - 14.4 1010.5 0.0
17/03:00pm NNE 7 11 - - - - - - - 15.0 1010.9 0.0
17/02:30pm NNE 6 11 - - - - - - - 14.8 1011.6 0.0
17/02:00pm NNE 10 15 - - - - - - - 15.8 1011.9 0.0
17/01:30pm NNE 10 15 - - - - - - - 15.9 1012.3 0.0
17/01:00pm NNE 9 15 - - - - - - - 15.5 1013.1 0.0
17/12:30pm NNE 9 13 - - - - - - - 15.6 1013.8 0.0
17/12:00pm N 8 14 - - - - - - - 13.5 1014.5 0.0
17/11:30am NNE 11 18 - - - - - - - 14.4 1014.7 0.0
17/11:00am NNE 9 15 - - - - - - - 13.5 1015.4 0.0
17/10:30am NNE 7 11 - - - - - - - 13.8 1015.8 0.0
17/10:00am NNE 8 12 - - - - - - - 11.9 1016.1 0.0
17/09:30am NNE 6 11 - - - - - - - 11.7 1016.2 0.0
17/09:00am NE 3 5 - - - - - - - 10.3 1016.5 0.0
17/08:30am NNW 3 3 - - - - - - - 7.9 1016.7 0.0
17/08:00am NW 3 3 - - - - - - - 7.0 1016.8 0.0
17/07:30am NW 3 4 - - - - - - - 6.0 1016.7 0.0
17/07:00am NW 4 5 - - - - - - - 5.1 1016.5 0.0
17/06:30am NW 2 4 - - - - - - - 6.6 1016.2 0.0
17/06:00am NW 3 5 - - - - - - - 6.6 1016.0 0.0
17/05:30am SW 2 3 - - - - - - - 6.8 1015.8 0.0
17/05:00am WNW 3 4 - - - - - - - 6.4 1015.7 0.0
17/04:30am WNW 3 4 - - - - - - - 6.9 1015.5 0.0
17/04:00am WNW 3 3 - - - - - - - 7.4 1014.9 0.0
17/03:30am WNW 4 4 - - - - - - - 7.4 1014.8 0.0
17/03:00am W 3 5 - - - - - - - 7.3 1014.7 0.0
17/02:30am SW 1 3 - - - - - - - 7.6 1014.6 0.0
17/02:00am WSW 1 3 - - - - - - - 8.0 1014.4 0.0
17/01:30am NW 3 4 - - - - - - - 8.1 1014.9 0.0
17/01:00am WSW 5 8 - - - - - - - 9.0 1014.6 0.0
17/12:30am W 4 6 - - - - - - - 9.2 1014.5 0.0
17/12:00am WSW 4 7 - - - - - - - 9.9 1014.5 0.0
 
Date/Time
EST
Wind Sea
Height
m
Swell Vis
km
Cloud Weather Temp
°C
Press
MSL
hPa
Rain since
9am
mm
Dir  Spd
kts
Gust
kts
Height
m
Period
s
Dir
16/11:30pm WSW 3 5 - - - - - - - 9.7 1014.4 0.0
16/11:00pm SW 2 7 - - - - - - - 9.8 1014.2 0.0
16/10:30pm W 2 4 - - - - - - - 10.0 1014.4 0.0
16/10:00pm SSW 7 10 - - - - - - - 10.3 1014.3 0.0
16/09:30pm SSW 7 11 - - - - - - - 10.7 1014.4 0.0
16/09:00pm SSW 9 14 - - - - - - - 11.3 1013.8 0.0
16/08:30pm SW 9 14 - - - - - - - 10.8 1013.5 0.0
16/08:00pm SW 6 11 - - - - - - - 10.7 1013.1 0.0
16/07:30pm SW 5 9 - - - - - - - 10.7 1012.2 0.0
16/07:00pm SSW 7 11 - - - - - - - 10.8 1011.3 0.0
16/06:30pm SSW 9 18 - - - - - - - 11.1 1010.6 0.0
16/06:00pm SSW 8 15 - - - - - - - 11.5 1010.4 0.0
16/05:30pm SSW 9 21 - - - - - - - 11.9 1009.7 0.0
16/05:00pm SSW 9 14 - - - - - - - 12.5 1009.0 0.0
16/04:30pm SSW 9 16 - - - - - - - 12.9 1008.6 0.0
16/04:00pm S 11 17 - - - - - - - 13.1 1008.0 0.0
16/03:30pm S 9 15 - - - - - - - 13.8 1007.6 0.0
16/03:00pm SSW 9 15 - - - - - - - 13.8 1007.2 0.0
16/02:30pm SSW 9 17 - - - - - - - 13.7 1007.0 0.0
16/02:00pm SSW 9 23 - - - - - - - 13.9 1006.4 0.0
16/01:30pm SSW 8 15 - - - - - - - 14.2 1006.1 0.0
16/01:00pm SW 8 15 - - - - - - - 16.0 1005.5 0.0
16/12:30pm SW 9 16 - - - - - - - 16.0 1005.4 0.0
16/12:00pm SW 10 19 - - - - - - - 15.6 1005.5 0.0
16/11:30am SW 8 13 - - - - - - - 15.2 1005.5 0.0
16/11:00am SW 11 19 - - - - - - - 14.3 1005.5 0.0
16/10:30am SW 7 13 - - - - - - - 13.5 1005.4 0.0
16/10:00am WSW 7 10 - - - - - - - 12.9 1005.1 0.0

Other formats

Comma delimited format used in spreadsheet applications
http://www.bom.gov.au/fwo/IDT60701/IDT60701.94987.axf

JavaScript Object Notation format (JSON) in row-major order
http://www.bom.gov.au/fwo/IDT60701/IDT60701.94987.json

Data quality

Most of these data are generated automatically and are frequently updated. Quality checks on data are not normally performed. It is possible for incorrect values to appear. Refer to information at About Latest Weather Observations and please check the disclaimer before using these data.